Time;durP1;ratioP1;P1;durP2;ratioP2;P2;SDS_P1;SDS_P2;PMS_P1;PMS_P2;Temp;Humidity;BMP_temperature;BMP_pressure;BME280_temperature;BME280_humidity;BME280_pressure;Samples;Min_cycle;Max_cycle;Signal;HPM_P1;HPM_P2
2022/05/22 00:00:16;;;;;;;4.50;3.05;;;;;;;18.94;nan;-24344.25;5070709;28;20178;-75
2022/05/22 00:02:42;;;;;;;3.78;2.70;;;;;;;18.91;nan;-24343.41;5078885;28;20193;-74
2022/05/22 00:05:10;;;;;;;6.25;3.00;;;;;;;19.26;nan;-24353.00;5074680;28;20677;-73
2022/05/22 00:07:36;;;;;;;4.05;2.67;;;;;;;19.41;nan;-24357.19;5074999;28;20182;-74
2022/05/22 00:10:03;;;;;;;5.00;2.95;;;;;;;19.14;nan;-24349.69;5076220;28;20778;-73
2022/05/22 00:12:28;;;;;;;4.13;2.90;;;;;;;19.50;nan;-24359.69;5073505;28;20637;-75
2022/05/22 00:14:54;;;;;;;6.47;2.80;;;;;;;19.52;nan;-24360.13;5074199;28;20206;-74
2022/05/22 00:17:19;;;;;;;4.57;2.72;;;;;;;19.55;nan;-24361.09;5074339;28;20666;-75
2022/05/22 00:19:45;;;;;;;4.68;2.78;;;;;;;19.31;nan;-24354.53;5071641;28;20621;-75
2022/05/22 00:22:11;;;;;;;4.68;2.80;;;;;;;19.31;nan;-24354.53;5073876;28;20177;-74
2022/05/22 00:24:37;;;;;;;3.83;2.65;;;;;;;19.30;nan;-24354.28;5077848;28;20205;-73
2022/05/22 00:27:03;;;;;;;3.45;2.60;;;;;;;19.23;nan;-24352.19;5074697;28;20186;-73
2022/05/22 00:29:30;;;;;;;4.35;2.50;;;;;;;19.47;nan;-24358.72;5073308;28;20175;-73
2022/05/22 00:31:55;;;;;;;3.15;2.58;;;;;;;19.70;nan;-24365.13;5073752;28;20696;-73
2022/05/22 00:34:21;;;;;;;6.97;2.20;;;;;;;19.54;nan;-24360.66;5077224;28;20233;-74
2022/05/22 00:36:46;;;;;;;3.78;2.75;;;;;;;19.27;nan;-24353.44;5072888;28;20192;-73
2022/05/22 00:39:12;;;;;;;3.65;2.70;;;;;;;19.63;nan;-24363.31;5076797;28;20564;-74
2022/05/22 00:41:38;;;;;;;3.17;2.40;;;;;;;19.58;nan;-24361.78;5071464;28;20257;-74
2022/05/22 00:44:06;;;;;;;3.50;2.55;;;;;;;19.64;nan;-24363.44;5070164;28;20182;-73
2022/05/22 00:46:33;;;;;;;2.88;2.47;;;;;;;19.37;nan;-24356.06;5071333;28;20189;-75
2022/05/22 00:49:02;;;;;;;5.38;2.70;;;;;;;19.47;nan;-24358.72;5076268;28;20226;-74
2022/05/22 00:51:42;;;;;;;2.90;2.33;;;;;;;19.76;nan;-24366.78;5071632;28;20672;-74
2022/05/22 00:54:16;;;;;;;3.50;2.45;;;;;;;19.37;nan;-24356.22;5055045;28;20234;-75
2022/05/22 00:57:00;;;;;;;3.08;2.40;;;;;;;19.61;nan;-24362.63;5064420;28;20213;-74
2022/05/22 00:59:33;;;;;;;6.05;2.83;;;;;;;19.39;nan;-24356.78;5074370;28;20746;-75
2022/05/22 01:01:59;;;;;;;3.33;2.45;;;;;;;19.60;nan;-24362.34;5074676;28;20178;-75
2022/05/22 01:04:28;;;;;;;3.25;2.50;;;;;;;19.46;nan;-24358.59;5072875;28;20174;-73
2022/05/22 01:06:54;;;;;;;3.72;2.50;;;;;;;19.88;nan;-24370.13;5074081;28;20580;-74
2022/05/22 01:09:20;;;;;;;3.35;2.35;;;;;;;19.96;nan;-24372.22;5073877;28;20681;-73
2022/05/22 01:11:47;;;;;;;5.43;2.55;;;;;;;20.12;nan;-24376.66;5075369;28;20204;-73
2022/05/22 01:14:21;;;;;;;3.35;2.30;;;;;;;20.19;nan;-24378.75;5078872;28;20205;-75
2022/05/22 01:16:48;;;;;;;3.55;2.25;;;;;;;20.27;nan;-24380.97;5077149;28;20186;-73
2022/05/22 01:19:17;;;;;;;3.83;2.50;;;;;;;20.27;nan;-24380.97;5074863;28;20201;-73
2022/05/22 01:22:12;;;;;;;2.90;2.40;;;;;;;20.19;nan;-24378.59;5074049;28;20180;-72
2022/05/22 01:24:38;;;;;;;3.30;2.50;;;;;;;20.22;nan;-24379.56;5072359;28;20632;-75
2022/05/22 01:27:07;;;;;;;4.05;2.58;;;;;;;19.98;nan;-24372.91;5072626;28;20209;-73
2022/05/22 01:29:32;;;;;;;3.92;2.58;;;;;;;19.88;nan;-24369.97;5071167;28;20170;-75
2022/05/22 01:31:58;;;;;;;4.85;2.70;;;;;;;20.41;nan;-24384.72;5074071;28;20600;-74
2022/05/22 01:34:24;;;;;;;4.07;2.60;;;;;;;20.33;nan;-24382.50;5074132;28;20660;-73
2022/05/22 01:36:49;;;;;;;3.95;2.85;;;;;;;20.18;nan;-24378.47;5074085;28;20181;-75
2022/05/22 01:39:15;;;;;;;3.40;2.65;;;;;;;20.37;nan;-24383.47;5073728;28;20184;-73
2022/05/22 01:41:40;;;;;;;3.17;2.20;;;;;;;20.65;nan;-24391.38;5073553;28;20243;-73
2022/05/22 01:44:06;;;;;;;3.90;2.63;;;;;;;20.81;nan;-24395.53;5073140;28;20174;-74
2022/05/22 01:46:31;;;;;;;2.47;2.28;;;;;;;20.41;nan;-24384.56;5074051;28;20180;-73
2022/05/22 01:48:57;;;;;;;3.67;2.60;;;;;;;20.58;nan;-24389.44;5073652;28;20170;-74
2022/05/22 01:51:24;;;;;;;3.95;2.28;;;;;;;20.67;nan;-24391.78;5073855;28;20231;-74
2022/05/22 01:53:49;;;;;;;2.97;2.47;;;;;;;20.57;nan;-24389.00;5073009;28;20205;-72
2022/05/22 01:56:14;;;;;;;4.25;2.50;;;;;;;20.17;nan;-24378.19;5073418;28;20170;-74
2022/05/22 01:58:40;;;;;;;3.28;2.50;;;;;;;20.39;nan;-24384.03;5073765;28;20206;-75
2022/05/22 02:01:08;;;;;;;3.78;2.30;;;;;;;20.61;nan;-24390.25;5075329;28;20212;-75
2022/05/22 02:03:33;;;;;;;4.00;2.55;;;;;;;20.26;nan;-24380.69;5072303;28;20199;-75
2022/05/22 02:05:58;;;;;;;3.70;2.60;;;;;;;20.47;nan;-24386.38;5073607;28;20269;-75
2022/05/22 02:08:24;;;;;;;2.90;2.25;;;;;;;20.41;nan;-24384.56;5072039;28;20228;-74
2022/05/22 02:10:59;;;;;;;3.95;2.60;;;;;;;20.65;nan;-24391.22;5073537;28;20196;-73
2022/05/22 02:13:28;;;;;;;3.08;2.38;;;;;;;20.45;nan;-24385.69;5072365;28;20212;-73
2022/05/22 02:15:54;;;;;;;4.07;2.35;;;;;;;20.81;nan;-24395.53;5072843;28;20198;-75
2022/05/22 02:18:20;;;;;;;3.42;2.55;;;;;;;19.65;nan;-24363.88;5073243;28;20173;-74
2022/05/22 02:20:47;;;;;;;3.83;2.90;;;;;;;20.97;nan;-24400.13;5073267;28;20600;-73
2022/05/22 02:23:14;;;;;;;4.20;2.70;;;;;;;20.87;nan;-24397.34;5072969;28;20159;-73
2022/05/22 02:25:44;;;;;;;4.82;2.42;;;;;;;20.87;nan;-24397.34;5072667;28;20196;-75
2022/05/22 02:28:11;;;;;;;4.65;2.80;;;;;;;20.80;nan;-24395.25;5072826;28;20209;-74
2022/05/22 02:30:38;;;;;;;2.90;2.38;;;;;;;20.70;nan;-24392.75;5072960;28;20178;-74
2022/05/22 02:33:05;;;;;;;3.63;2.47;;;;;;;20.48;nan;-24386.66;5074534;28;20256;-75
2022/05/22 02:35:30;;;;;;;3.50;2.72;;;;;;;20.53;nan;-24387.91;5073246;28;20335;-74
2022/05/22 02:37:56;;;;;;;3.55;2.65;;;;;;;20.84;nan;-24396.38;5080605;28;20212;-75
2022/05/22 02:40:24;;;;;;;3.45;2.55;;;;;;;20.89;nan;-24397.75;5074575;28;20178;-73
2022/05/22 02:42:51;;;;;;;4.65;2.80;;;;;;;20.87;nan;-24397.19;5075628;28;20181;-75
2022/05/22 02:45:20;;;;;;;3.67;2.63;;;;;;;20.77;nan;-24394.41;5100337;28;20181;-74
2022/05/22 02:47:46;;;;;;;4.15;2.83;;;;;;;20.97;nan;-24399.97;5071989;28;20181;-74
2022/05/22 02:50:13;;;;;;;4.38;2.90;;;;;;;21.11;nan;-24404.00;5071146;28;20174;-73
2022/05/22 02:52:39;;;;;;;3.75;2.65;;;;;;;21.20;nan;-24406.22;5072502;28;20173;-74
2022/05/22 02:55:06;;;;;;;3.67;2.90;;;;;;;21.26;nan;-24408.03;5072309;28;20232;-75
2022/05/22 02:57:33;;;;;;;5.07;2.80;;;;;;;20.84;nan;-24396.50;5072519;28;20189;-73
2022/05/22 02:59:58;;;;;;;4.13;2.80;;;;;;;21.23;nan;-24407.19;5072506;28;20180;-75
2022/05/22 03:02:24;;;;;;;7.55;3.20;;;;;;;21.18;nan;-24405.66;5072406;28;20162;-74
2022/05/22 03:04:49;;;;;;;6.82;2.83;;;;;;;21.14;nan;-24404.84;5071974;28;20216;-72
2022/05/22 03:07:17;;;;;;;2.78;2.40;;;;;;;21.28;nan;-24408.44;5071201;28;20170;-74
2022/05/22 03:09:45;;;;;;;3.58;2.88;;;;;;;21.07;nan;-24402.88;5071018;28;20227;-72
2022/05/22 03:12:15;;;;;;;4.80;3.15;;;;;;;21.41;nan;-24412.19;5072150;28;20174;-73
2022/05/22 03:14:50;;;;;;;4.13;3.00;;;;;;;21.40;nan;-24411.91;5072060;28;20194;-74
2022/05/22 03:17:16;;;;;;;5.05;3.22;;;;;;;21.48;nan;-24414.13;5072148;28;20180;-73
2022/05/22 03:19:42;;;;;;;3.55;2.95;;;;;;;21.61;nan;-24417.59;5074631;28;20197;-74
2022/05/22 03:22:09;;;;;;;5.60;3.20;;;;;;;21.93;nan;-24426.44;5072016;28;20178;-74
2022/05/22 03:24:35;;;;;;;5.20;3.20;;;;;;;21.98;nan;-24427.69;5071917;28;20194;-74
2022/05/22 03:27:02;;;;;;;6.20;3.72;;;;;;;21.72;nan;-24420.63;5072170;28;20595;-73
2022/05/22 03:29:28;;;;;;;4.80;3.42;;;;;;;21.82;nan;-24423.41;5071713;28;20185;-75
2022/05/22 03:31:54;;;;;;;4.47;3.13;;;;;;;21.58;nan;-24416.88;5071868;28;20211;-72
2022/05/22 03:34:19;;;;;;;4.30;3.35;;;;;;;21.93;nan;-24426.44;5072127;28;20247;-73
2022/05/22 03:36:45;;;;;;;5.60;3.40;;;;;;;22.03;nan;-24429.09;5071206;28;20295;-75
2022/05/22 03:39:10;;;;;;;6.35;3.60;;;;;;;22.05;nan;-24429.63;5079072;28;20169;-74
2022/05/22 03:41:36;;;;;;;6.55;3.15;;;;;;;22.15;nan;-24432.25;5070846;28;20728;-73
2022/05/22 03:44:02;;;;;;;4.30;3.22;;;;;;;22.09;nan;-24430.75;5073126;28;20169;-74
2022/05/22 03:46:28;;;;;;;4.20;2.97;;;;;;;22.09;nan;-24430.59;5079651;28;20276;-72
2022/05/22 03:48:53;;;;;;;4.72;3.42;;;;;;;21.86;nan;-24424.38;5073902;28;20672;-73
2022/05/22 03:51:19;;;;;;;4.50;3.55;;;;;;;21.82;nan;-24423.25;5070722;28;20243;-73
2022/05/22 03:53:44;;;;;;;4.57;3.33;;;;;;;21.77;nan;-24421.88;5073840;28;20178;-73
2022/05/22 03:56:14;;;;;;;4.60;3.55;;;;;;;21.86;nan;-24424.50;5071719;28;20232;-75
2022/05/22 03:58:41;;;;;;;4.50;3.28;;;;;;;22.07;nan;-24430.19;5071148;28;20527;-74
2022/05/22 04:01:07;;;;;;;3.58;3.00;;;;;;;21.87;nan;-24424.66;5073760;28;20285;-72
2022/05/22 04:03:34;;;;;;;4.40;3.45;;;;;;;22.08;nan;-24430.31;5071661;28;20212;-73
2022/05/22 04:06:01;;;;;;;4.30;3.17;;;;;;;21.84;nan;-24423.81;5070082;28;20285;-73
2022/05/22 04:08:28;;;;;;;4.07;3.13;;;;;;;22.11;nan;-24431.28;5072137;28;20193;-76
2022/05/22 04:10:54;;;;;;;4.28;3.17;;;;;;;22.03;nan;-24429.22;5071406;28;20568;-74
2022/05/22 04:13:19;;;;;;;5.43;3.20;;;;;;;22.08;nan;-24430.47;5071437;28;20166;-74
2022/05/22 04:15:46;;;;;;;3.95;3.05;;;;;;;21.93;nan;-24426.44;5071135;28;20229;-73
2022/05/22 04:18:14;;;;;;;4.60;3.42;;;;;;;21.97;nan;-24427.56;5071753;28;20236;-73
2022/05/22 04:20:40;;;;;;;3.60;2.80;;;;;;;22.23;nan;-24434.63;5070117;28;20702;-73
2022/05/22 04:25:59;;;;;;;4.68;3.20;;;;;;;22.37;nan;-24438.50;5071107;28;20185;-74
2022/05/22 04:28:26;;;;;;;4.40;3.08;;;;;;;22.50;nan;-24441.94;5074477;28;20174;-72
2022/05/22 04:30:52;;;;;;;4.10;3.00;;;;;;;22.05;nan;-24429.50;5074697;28;20863;-75
2022/05/22 04:33:18;;;;;;;8.60;3.50;;;;;;;22.32;nan;-24436.97;5074798;28;20265;-74
2022/05/22 04:35:44;;;;;;;3.38;2.70;;;;;;;22.65;nan;-24446.09;5079047;28;20580;-75
2022/05/22 04:38:11;;;;;;;4.50;2.80;;;;;;;22.66;nan;-24446.25;5074383;28;20188;-74
2022/05/22 04:40:38;;;;;;;4.30;3.00;;;;;;;22.63;nan;-24445.53;5074492;28;20247;-72
2022/05/22 04:43:04;;;;;;;3.55;2.95;;;;;;;22.77;nan;-24449.41;5074464;28;20239;-73
2022/05/22 04:45:30;;;;;;;2.75;2.47;;;;;;;22.92;nan;-24453.44;5073453;28;20261;-74
2022/05/22 04:47:55;;;;;;;3.80;2.60;;;;;;;22.86;nan;-24451.91;5074682;28;20641;-74
2022/05/22 04:50:21;;;;;;;4.57;2.60;;;;;;;23.09;nan;-24458.13;5074573;28;20253;-75
2022/05/22 04:52:46;;;;;;;3.25;2.50;;;;;;;23.58;nan;-24471.38;5073041;28;20331;-74
2022/05/22 04:55:12;;;;;;;3.55;2.50;;;;;;;24.10;nan;-24485.59;5074448;28;20225;-74
2022/05/22 04:57:37;;;;;;;3.45;2.47;;;;;;;23.65;nan;-24473.47;5074406;28;20649;-75
2022/05/22 05:00:09;;;;;;;3.72;2.70;;;;;;;23.45;nan;-24467.78;5072953;28;20178;-75
2022/05/22 05:02:34;;;;;;;5.65;2.80;;;;;;;23.17;nan;-24460.34;5073215;28;20166;-74
2022/05/22 05:05:00;;;;;;;5.95;3.20;;;;;;;23.36;nan;-24465.44;5077660;28;20202;-78
2022/05/22 05:07:25;;;;;;;6.45;2.83;;;;;;;23.29;nan;-24463.50;5073471;28;20174;-81
2022/05/22 05:09:51;;;;;;;4.00;2.92;;;;;;;23.33;nan;-24464.63;5074620;28;20266;-80
2022/05/22 05:12:17;;;;;;;4.65;3.35;;;;;;;23.22;nan;-24461.56;5075015;28;20182;-80
2022/05/22 05:14:44;;;;;;;4.30;3.28;;;;;;;23.44;nan;-24467.53;5074665;28;20193;-76
2022/05/22 05:17:13;;;;;;;3.20;2.42;;;;;;;23.39;nan;-24466.28;5077453;28;20204;-78
2022/05/22 05:19:38;;;;;;;3.83;2.88;;;;;;;23.31;nan;-24464.19;5080422;28;20764;-79
2022/05/22 05:22:04;;;;;;;4.28;3.20;;;;;;;23.38;nan;-24465.88;5077401;28;20273;-76
2022/05/22 05:24:29;;;;;;;4.07;2.83;;;;;;;23.47;nan;-24468.34;5078707;28;20204;-79
2022/05/22 05:26:55;;;;;;;3.80;2.75;;;;;;;23.91;nan;-24480.50;5076802;28;20667;-75
2022/05/22 05:29:21;;;;;;;3.33;2.60;;;;;;;23.77;nan;-24476.63;5074228;28;20190;-75
2022/05/22 05:31:47;;;;;;;5.82;2.60;;;;;;;23.72;nan;-24475.38;5078343;28;20443;-74
2022/05/22 05:34:13;;;;;;;3.20;2.50;;;;;;;23.73;nan;-24475.53;5079960;28;20676;-74
2022/05/22 05:36:39;;;;;;;2.90;2.40;;;;;;;23.88;nan;-24479.53;5078880;28;20183;-73
2022/05/22 05:39:07;;;;;;;3.67;2.50;;;;;;;24.25;nan;-24489.75;5080174;28;20217;-75
2022/05/22 05:41:35;;;;;;;2.90;2.40;;;;;;;24.06;nan;-24484.50;5073926;28;20181;-75
2022/05/22 05:44:05;;;;;;;4.15;2.75;;;;;;;24.43;nan;-24494.69;5077453;28;20642;-74
2022/05/22 05:46:32;;;;;;;3.10;2.60;;;;;;;24.80;nan;-24504.63;5077529;28;20181;-74
2022/05/22 05:48:58;;;;;;;3.58;2.85;;;;;;;24.96;nan;-24509.03;5068428;28;20644;-74
2022/05/22 05:51:24;;;;;;;2.97;2.50;;;;;;;24.79;nan;-24504.47;5076029;28;20231;-74
2022/05/22 05:53:49;;;;;;;3.15;2.42;;;;;;;24.99;nan;-24509.84;5076463;28;20186;-74
2022/05/22 05:56:14;;;;;;;3.50;2.75;;;;;;;25.34;nan;-24519.50;5076543;28;20174;-74
2022/05/22 05:58:40;;;;;;;2.83;2.28;;;;;;;25.35;nan;-24519.63;5078443;28;20182;-75
2022/05/22 06:01:05;;;;;;;3.35;2.60;;;;;;;25.55;nan;-24525.13;5074916;28;20247;-74
2022/05/22 06:03:31;;;;;;;3.60;2.67;;;;;;;25.93;nan;-24535.44;5076896;28;20185;-76
2022/05/22 06:05:57;;;;;;;3.90;2.47;;;;;;;26.21;nan;-24543.00;5074236;28;20642;-73
2022/05/22 06:08:23;;;;;;;3.35;2.40;;;;;;;26.14;nan;-24541.09;5072109;28;20181;-73
2022/05/22 06:10:48;;;;;;;2.97;2.35;;;;;;;26.09;nan;-24539.84;5076579;28;20185;-75
2022/05/22 06:13:13;;;;;;;2.53;2.00;;;;;;;26.16;nan;-24541.78;5108390;28;20550;-73
2022/05/22 06:15:39;;;;;;;5.25;2.35;;;;;;;26.90;nan;-24561.69;5072788;28;20217;-74
2022/05/22 06:18:05;;;;;;;5.25;2.88;;;;;;;26.58;nan;-24553.19;5108829;28;20178;-74
2022/05/22 06:20:31;;;;;;;3.38;2.53;;;;;;;26.85;nan;-24560.44;5077164;28;20189;-77
2022/05/22 06:22:57;;;;;;;4.15;2.45;;;;;;;26.61;nan;-24553.84;5108194;28;20180;-75
2022/05/22 06:25:23;;;;;;;4.03;2.70;;;;;;;26.48;nan;-24550.28;5075910;28;20641;-75
2022/05/22 06:27:48;;;;;;;8.30;2.33;;;;;;;26.71;nan;-24556.59;5071288;28;20569;-73
2022/05/22 06:30:15;;;;;;;2.88;2.28;;;;;;;26.59;nan;-24553.44;5072126;28;20570;-72
2022/05/22 06:32:42;;;;;;;2.30;1.95;;;;;;;26.47;nan;-24550.16;5075757;28;20302;-72
2022/05/22 06:35:13;;;;;;;2.90;2.25;;;;;;;26.60;nan;-24553.59;5077077;28;20635;-72
2022/05/22 06:37:38;;;;;;;3.25;2.40;;;;;;;26.59;nan;-24553.31;5073957;28;20282;-76
2022/05/22 06:40:06;;;;;;;3.35;1.92;;;;;;;26.64;nan;-24554.69;5074999;28;20213;-77
2022/05/22 06:42:36;;;;;;;2.92;2.08;;;;;;;26.50;nan;-24550.84;5092885;28;20190;-76
2022/05/22 06:45:06;;;;;;;3.85;2.20;;;;;;;26.44;nan;-24549.34;5074956;28;20200;-76
2022/05/22 06:47:34;;;;;;;2.70;2.20;;;;;;;26.34;nan;-24546.59;5077999;28;20243;-75
2022/05/22 06:50:04;;;;;;;3.42;2.25;;;;;;;26.50;nan;-24550.97;5066114;28;20272;-74
2022/05/22 06:52:31;;;;;;;3.22;2.30;;;;;;;26.59;nan;-24553.44;5107771;28;20192;-76
2022/05/22 06:54:56;;;;;;;2.47;1.80;;;;;;;26.38;nan;-24547.69;5033008;28;1119032;-74
2022/05/22 06:57:22;;;;;;;3.75;2.10;;;;;;;26.42;nan;-24548.78;5075834;28;20698;-76
2022/05/22 06:59:48;;;;;;;2.25;1.77;;;;;;;26.57;nan;-24552.91;5076002;28;20186;-74
2022/05/22 07:02:15;;;;;;;3.00;2.22;;;;;;;26.49;nan;-24550.56;5075241;28;20181;-75
2022/05/22 07:04:41;;;;;;;2.85;1.80;;;;;;;26.42;nan;-24548.78;5078642;28;20185;-75
2022/05/22 07:07:08;;;;;;;1.85;1.65;;;;;;;26.46;nan;-24549.75;5075750;28;20207;-77
2022/05/22 07:09:34;;;;;;;2.00;1.80;;;;;;;26.22;nan;-24543.41;5075623;28;20185;-76
2022/05/22 07:12:00;;;;;;;2.03;1.83;;;;;;;26.22;nan;-24543.41;5074904;28;20186;-77
2022/05/22 07:14:28;;;;;;;2.75;1.95;;;;;;;25.96;nan;-24536.28;5109200;27;20201;-77
2022/05/22 07:16:55;;;;;;;3.72;2.10;;;;;;;25.80;nan;-24532.00;5106060;27;20185;-76
2022/05/22 07:19:21;;;;;;;2.47;1.90;;;;;;;25.59;nan;-24526.09;5077086;28;20182;-75
2022/05/22 07:21:47;;;;;;;3.17;2.03;;;;;;;25.80;nan;-24531.88;5076737;28;20185;-75
2022/05/22 07:24:13;;;;;;;4.63;2.10;;;;;;;25.90;nan;-24534.75;5073722;28;20178;-77
2022/05/22 07:26:40;;;;;;;2.95;1.98;;;;;;;25.60;nan;-24526.50;5074743;28;20569;-74
2022/05/22 07:29:05;;;;;;;2.13;1.83;;;;;;;25.69;nan;-24528.84;5076211;28;20178;-78
2022/05/22 07:31:32;;;;;;;3.20;2.00;;;;;;;26.06;nan;-24538.88;5076138;28;20192;-75
2022/05/22 07:33:58;;;;;;;2.22;1.80;;;;;;;25.99;nan;-24537.09;5072230;28;21936;-76
2022/05/22 07:36:23;;;;;;;2.50;1.92;;;;;;;25.79;nan;-24531.75;5075456;28;20656;-74
2022/05/22 07:38:49;;;;;;;2.33;1.90;;;;;;;25.73;nan;-24529.94;5074966;28;20652;-76
2022/05/22 07:41:15;;;;;;;2.25;1.90;;;;;;;26.01;nan;-24537.66;5077265;28;20247;-77
2022/05/22 07:43:41;;;;;;;2.20;1.60;;;;;;;26.22;nan;-24543.41;5077202;28;20177;-74
2022/05/22 07:46:08;;;;;;;2.65;1.90;;;;;;;26.52;nan;-24551.53;5108189;27;20234;-73
2022/05/22 07:48:34;;;;;;;3.28;2.05;;;;;;;26.49;nan;-24550.69;5073170;28;20177;-74
2022/05/22 07:51:02;;;;;;;1.98;1.77;;;;;;;26.56;nan;-24552.63;5068193;28;20196;-74
2022/05/22 07:53:28;;;;;;;2.58;1.83;;;;;;;26.68;nan;-24555.91;5073289;28;20204;-73
2022/05/22 07:55:54;;;;;;;3.45;2.25;;;;;;;26.70;nan;-24556.31;5077868;28;20236;-75
2022/05/22 07:58:22;;;;;;;4.40;1.90;;;;;;;26.46;nan;-24549.75;5077015;28;20170;-73
2022/05/22 08:00:49;;;;;;;2.28;1.60;;;;;;;26.62;nan;-24554.28;5075868;28;20251;-75
2022/05/22 08:03:16;;;;;;;3.45;1.75;;;;;;;26.57;nan;-24552.91;5076446;28;20281;-74
2022/05/22 08:05:42;;;;;;;1.85;1.65;;;;;;;26.90;nan;-24561.81;5080450;28;20181;-75
2022/05/22 08:08:08;;;;;;;1.88;1.60;;;;;;;26.62;nan;-24554.13;5078730;28;20196;-75
2022/05/22 08:10:36;;;;;;;1.73;1.50;;;;;;;26.60;nan;-24553.72;5083068;28;20251;-74
2022/05/22 08:13:04;;;;;;;2.22;1.52;;;;;;;26.55;nan;-24552.22;5079447;28;20166;-74
2022/05/22 08:15:31;;;;;;;2.40;1.40;;;;;;;26.53;nan;-24551.81;5078489;28;20695;-74
2022/05/22 08:17:57;;;;;;;2.50;1.58;;;;;;;26.23;nan;-24543.69;5075535;28;20185;-74
2022/05/22 08:20:24;;;;;;;1.92;1.58;;;;;;;26.25;nan;-24544.25;5080056;28;20170;-74
2022/05/22 08:22:56;;;;;;;2.28;1.52;;;;;;;26.58;nan;-24553.19;5078072;28;20256;-75
2022/05/22 08:25:24;;;;;;;8.77;2.30;;;;;;;26.78;nan;-24558.66;5079073;28;20190;-74
2022/05/22 08:27:51;;;;;;;3.35;1.70;;;;;;;27.08;nan;-24566.63;5075637;28;20182;-74
2022/05/22 08:30:18;;;;;;;2.22;1.73;;;;;;;26.72;nan;-24556.88;5079956;28;20213;-75
2022/05/22 08:32:45;;;;;;;1.80;1.65;;;;;;;26.72;nan;-24557.03;5077764;28;20178;-74
2022/05/22 08:35:14;;;;;;;1.73;1.60;;;;;;;26.86;nan;-24560.59;5077976;28;20201;-72
2022/05/22 08:37:41;;;;;;;2.20;1.77;;;;;;;27.07;nan;-24566.47;5073813;28;20712;-74
2022/05/22 08:40:07;;;;;;;6.53;1.45;;;;;;;27.39;nan;-24574.97;5108590;27;21242;-74
2022/05/22 08:42:43;;;;;;;2.05;1.60;;;;;;;27.43;nan;-24576.06;5079299;28;20197;-68
2022/05/22 08:45:27;;;;;;;2.50;1.58;;;;;;;27.47;nan;-24577.19;5079714;28;20189;-73
2022/05/22 08:47:59;;;;;;;2.15;1.55;;;;;;;28.03;nan;-24592.38;5079094;28;20189;-73
2022/05/22 08:50:25;;;;;;;2.05;1.50;;;;;;;27.92;nan;-24589.38;5082182;28;20721;-79
2022/05/22 08:53:03;;;;;;;1.65;1.50;;;;;;;28.00;nan;-24591.56;5080016;28;20178;-76
2022/05/22 09:01:12;;;;;;;1.50;1.40;;;;;;;27.77;nan;-24585.25;5081227;28;20188;-76
2022/05/22 09:04:03;;;;;;;1.65;1.42;;;;;;;28.24;nan;-24598.13;5080653;28;20567;-78
2022/05/22 09:06:58;;;;;;;2.10;1.58;;;;;;;27.82;nan;-24586.63;5069134;28;20276;-76
2022/05/22 09:09:27;;;;;;;2.80;1.80;;;;;;;27.84;nan;-24587.19;5078433;28;20188;-77
2022/05/22 09:12:09;;;;;;;1.90;1.48;;;;;;;28.39;nan;-24602.09;5078485;28;20253;-76
2022/05/22 09:14:42;;;;;;;1.70;1.52;;;;;;;28.07;nan;-24593.63;5078145;28;20193;-78
2022/05/22 09:17:16;;;;;;;2.05;1.50;;;;;;;28.13;nan;-24595.00;5082004;28;20699;-78
2022/05/22 09:19:58;;;;;;;2.58;1.70;;;;;;;28.48;nan;-24604.69;5114950;27;20186;-77
2022/05/22 09:22:26;;;;;;;1.58;1.42;;;;;;;28.77;nan;-24612.50;5075570;28;20197;-75
2022/05/22 09:25:00;;;;;;;1.70;1.50;;;;;;;28.67;nan;-24609.75;5078570;28;20262;-78
2022/05/22 09:27:31;;;;;;;2.15;1.60;;;;;;;28.92;nan;-24616.47;5076260;28;20182;-76
2022/05/22 09:30:05;;;;;;;2.80;1.63;;;;;;;29.42;nan;-24630.00;5080436;28;20657;-75
2022/05/22 09:32:45;;;;;;;2.40;1.65;;;;;;;29.32;nan;-24627.25;5077749;28;20185;-78
2022/05/22 09:35:17;;;;;;;1.60;1.40;;;;;;;29.54;nan;-24633.13;5077084;28;20270;-77
2022/05/22 09:38:01;;;;;;;2.20;1.70;;;;;;;29.10;nan;-24621.25;5076697;28;20234;-77
2022/05/22 09:40:33;;;;;;;1.73;1.50;;;;;;;29.26;nan;-24625.75;5071224;28;20196;-77
2022/05/22 09:43:40;;;;;;;3.08;1.70;;;;;;;29.17;nan;-24623.16;5079633;28;20248;-77
2022/05/22 09:46:23;;;;;;;1.73;1.60;;;;;;;29.26;nan;-24625.75;5092129;28;20189;-75
2022/05/22 09:49:07;;;;;;;1.95;1.50;;;;;;;29.09;nan;-24620.97;5077935;28;20676;-75
2022/05/22 09:51:55;;;;;;;2.70;1.95;;;;;;;29.13;nan;-24622.19;5080037;28;20260;-75
2022/05/22 09:54:45;;;;;;;2.78;1.80;;;;;;;29.29;nan;-24626.44;5041069;28;20237;-76
2022/05/22 09:57:29;;;;;;;1.38;1.27;;;;;;;29.46;nan;-24631.06;5074804;28;20247;-78
2022/05/22 10:00:09;;;;;;;2.20;1.70;;;;;;;29.33;nan;-24627.66;5077605;28;20237;-75
2022/05/22 10:02:34;;;;;;;1.52;1.27;;;;;;;29.16;nan;-24623.03;5085710;28;20197;-76
2022/05/22 10:05:30;;;;;;;1.67;1.58;;;;;;;28.90;nan;-24616.06;5076555;28;20182;-76
2022/05/22 10:08:03;;;;;;;1.92;1.52;;;;;;;29.07;nan;-24620.44;5075736;28;20204;-76
2022/05/22 10:10:38;;;;;;;2.20;1.70;;;;;;;28.71;nan;-24610.88;5074749;28;20182;-77
2022/05/22 10:13:51;;;;;;;1.92;1.70;;;;;;;28.97;nan;-24617.81;5077263;28;20185;-75
2022/05/22 10:16:37;;;;;;;2.65;2.25;;;;;;;28.53;nan;-24606.06;5069706;28;20194;-78
2022/05/22 10:19:24;;;;;;;1.63;1.40;;;;;;;28.01;nan;-24591.84;5086902;28;20636;-78
2022/05/22 10:22:11;;;;;;;2.20;1.50;;;;;;;28.72;nan;-24611.00;5089452;28;20188;-75
2022/05/22 10:25:01;;;;;;;2.25;1.60;;;;;;;28.77;nan;-24612.38;5075520;28;20205;-78
2022/05/22 10:27:54;;;;;;;2.00;1.60;;;;;;;29.03;nan;-24619.34;5069594;28;20189;-77
2022/05/22 10:30:51;;;;;;;2.47;1.67;;;;;;;29.65;nan;-24636.13;5101505;27;20285;-75
2022/05/22 10:33:51;;;;;;;1.77;1.30;;;;;;;29.02;nan;-24619.06;5077034;28;20544;-77
2022/05/22 10:36:27;;;;;;;1.60;1.40;;;;;;;29.45;nan;-24630.66;5087852;28;20220;-76
2022/05/22 10:39:00;;;;;;;1.88;1.48;;;;;;;29.34;nan;-24627.94;5107562;27;20204;-68
2022/05/22 10:44:18;;;;;;;2.92;1.42;;;;;;;29.47;nan;-24631.22;5071812;28;20200;-70
2022/05/22 10:46:52;;;;;;;2.20;1.30;;;;;;;29.69;nan;-24637.22;5078804;28;20655;-70
2022/05/22 10:49:24;;;;;;;5.50;1.60;;;;;;;29.63;nan;-24635.59;5107245;27;20213;-71
2022/05/22 10:51:58;;;;;;;3.08;1.70;;;;;;;29.71;nan;-24637.91;5110603;27;20177;-70
2022/05/22 10:54:29;;;;;;;1.60;1.40;;;;;;;29.56;nan;-24633.81;5078171;28;20242;-70
2022/05/22 10:56:55;;;;;;;1.67;1.52;;;;;;;29.62;nan;-24635.31;5078366;28;20189;-71
2022/05/22 10:59:22;;;;;;;2.17;1.73;;;;;;;29.36;nan;-24628.34;5074416;28;20186;-70
2022/05/22 11:01:58;;;;;;;1.42;1.33;;;;;;;29.68;nan;-24637.09;5075407;28;20169;-72
2022/05/22 11:04:36;;;;;;;2.15;1.70;;;;;;;29.53;nan;-24633.00;5077587;28;20193;-70
2022/05/22 11:07:02;;;;;;;1.95;1.65;;;;;;;29.76;nan;-24639.13;5078917;28;20640;-71
2022/05/22 11:09:31;;;;;;;2.55;1.63;;;;;;;29.62;nan;-24635.44;5077398;28;20232;-70
2022/05/22 11:12:10;;;;;;;1.90;1.50;;;;;;;29.51;nan;-24632.31;5078505;28;20177;-69
2022/05/22 11:14:36;;;;;;;2.13;1.60;;;;;;;29.27;nan;-24625.88;5069827;28;20209;-70
2022/05/22 11:17:08;;;;;;;1.92;1.65;;;;;;;29.36;nan;-24628.47;5073872;28;20962;-70
2022/05/22 11:19:40;;;;;;;2.13;1.60;;;;;;;29.82;nan;-24640.91;5076309;28;20174;-71
2022/05/22 11:22:14;;;;;;;2.25;1.70;;;;;;;29.50;nan;-24632.19;5075583;28;20276;-70
2022/05/22 11:24:43;;;;;;;2.22;1.67;;;;;;;30.02;nan;-24646.09;5075896;28;20708;-71
2022/05/22 11:27:36;;;;;;;2.10;1.58;;;;;;;29.51;nan;-24632.31;5072476;28;20629;-70
2022/05/22 11:30:08;;;;;;;1.60;1.50;;;;;;;29.54;nan;-24633.13;5076095;28;20274;-69
2022/05/22 11:32:57;;;;;;;2.92;1.77;;;;;;;29.76;nan;-24639.28;5076052;28;20226;-69
2022/05/22 11:35:32;;;;;;;2.00;1.75;;;;;;;29.52;nan;-24632.59;5074689;28;20312;-69
2022/05/22 11:38:06;;;;;;;3.95;2.50;;;;;;;29.67;nan;-24636.69;5074102;28;20183;-69
2022/05/22 11:40:47;;;;;;;2.33;1.92;;;;;;;29.85;nan;-24641.59;5072212;28;20188;-70
2022/05/22 11:43:44;;;;;;;3.45;2.22;;;;;;;29.55;nan;-24633.41;5074674;28;20223;-70
2022/05/22 11:46:28;;;;;;;2.78;1.92;;;;;;;30.51;nan;-24659.44;5068876;28;20284;-70
2022/05/22 11:48:54;;;;;;;6.00;2.65;;;;;;;30.34;nan;-24654.69;5079478;28;20223;-69
2022/05/22 11:51:26;;;;;;;4.55;2.63;;;;;;;30.48;nan;-24658.63;5075566;28;20193;-69
2022/05/22 11:54:02;;;;;;;4.38;2.63;;;;;;;30.49;nan;-24658.91;5074627;28;20238;-70
2022/05/22 11:56:45;;;;;;;6.43;2.85;;;;;;;30.15;nan;-24649.78;5075805;28;20242;-70
2022/05/22 11:59:43;;;;;;;3.78;2.63;;;;;;;30.01;nan;-24645.94;5077709;28;20177;-70
2022/05/22 12:02:25;;;;;;;6.97;3.30;;;;;;;29.96;nan;-24644.59;5076381;28;20670;-71
2022/05/22 12:04:56;;;;;;;4.10;2.80;;;;;;;29.70;nan;-24637.63;5073361;28;20193;-68